sensor_id;sensor_type;location;lat;lon;timestamp;temperature;humidity
66522;SHT31;53349;53.538;8.584;2023-01-19T00:01:44;3.27;77.96
66522;SHT31;53349;53.538;8.584;2023-01-19T00:04:09;3.29;78.03
66522;SHT31;53349;53.538;8.584;2023-01-19T00:06:36;3.31;77.91
66522;SHT31;53349;53.538;8.584;2023-01-19T00:09:01;3.30;78.00
66522;SHT31;53349;53.538;8.584;2023-01-19T00:11:29;3.31;77.95
66522;SHT31;53349;53.538;8.584;2023-01-19T00:13:56;3.34;77.79
66522;SHT31;53349;53.538;8.584;2023-01-19T00:16:21;3.31;77.76
66522;SHT31;53349;53.538;8.584;2023-01-19T00:18:46;3.36;77.84
66522;SHT31;53349;53.538;8.584;2023-01-19T00:21:13;3.36;77.88
66522;SHT31;53349;53.538;8.584;2023-01-19T00:23:38;3.36;77.87
66522;SHT31;53349;53.538;8.584;2023-01-19T00:26:05;3.36;77.85
66522;SHT31;53349;53.538;8.584;2023-01-19T00:28:30;3.34;77.93
66522;SHT31;53349;53.538;8.584;2023-01-19T00:30:56;3.31;77.99
66522;SHT31;53349;53.538;8.584;2023-01-19T00:33:22;3.31;77.99
66522;SHT31;53349;53.538;8.584;2023-01-19T00:35:52;3.30;77.91
66522;SHT31;53349;53.538;8.584;2023-01-19T00:38:18;3.33;77.90
66522;SHT31;53349;53.538;8.584;2023-01-19T00:40:43;3.34;77.88
66522;SHT31;53349;53.538;8.584;2023-01-19T00:43:08;3.33;77.81
66522;SHT31;53349;53.538;8.584;2023-01-19T00:45:34;3.34;77.91
66522;SHT31;53349;53.538;8.584;2023-01-19T00:48:00;3.34;78.05
66522;SHT31;53349;53.538;8.584;2023-01-19T00:50:30;3.39;78.01
66522;SHT31;53349;53.538;8.584;2023-01-19T00:52:56;3.39;77.84
66522;SHT31;53349;53.538;8.584;2023-01-19T00:55:23;3.36;77.85
66522;SHT31;53349;53.538;8.584;2023-01-19T00:57:48;3.33;78.02
66522;SHT31;53349;53.538;8.584;2023-01-19T01:00:15;3.29;78.08
66522;SHT31;53349;53.538;8.584;2023-01-19T01:02:42;3.29;78.22
66522;SHT31;53349;53.538;8.584;2023-01-19T01:05:09;3.31;78.15
66522;SHT31;53349;53.538;8.584;2023-01-19T01:07:35;3.33;77.94
66522;SHT31;53349;53.538;8.584;2023-01-19T01:10:01;3.36;77.98
66522;SHT31;53349;53.538;8.584;2023-01-19T01:12:26;3.34;77.99
66522;SHT31;53349;53.538;8.584;2023-01-19T01:14:51;3.37;77.92
66522;SHT31;53349;53.538;8.584;2023-01-19T01:17:17;3.33;77.92
66522;SHT31;53349;53.538;8.584;2023-01-19T01:19:42;3.33;77.87
66522;SHT31;53349;53.538;8.584;2023-01-19T01:22:09;3.31;77.96
66522;SHT31;53349;53.538;8.584;2023-01-19T01:24:34;3.31;77.96
66522;SHT31;53349;53.538;8.584;2023-01-19T01:26:59;3.34;78.00
66522;SHT31;53349;53.538;8.584;2023-01-19T01:29:25;3.36;77.91
66522;SHT31;53349;53.538;8.584;2023-01-19T01:31:50;3.36;77.86
66522;SHT31;53349;53.538;8.584;2023-01-19T01:34:16;3.33;77.83
66522;SHT31;53349;53.538;8.584;2023-01-19T01:36:42;3.34;77.89
66522;SHT31;53349;53.538;8.584;2023-01-19T01:39:07;3.39;77.86
66522;SHT31;53349;53.538;8.584;2023-01-19T01:41:33;3.39;77.78
66522;SHT31;53349;53.538;8.584;2023-01-19T01:43:59;3.34;77.87
66522;SHT31;53349;53.538;8.584;2023-01-19T01:46:25;3.37;77.85
66522;SHT31;53349;53.538;8.584;2023-01-19T01:49:12;3.39;77.94
66522;SHT31;53349;53.538;8.584;2023-01-19T01:51:40;3.36;78.06
66522;SHT31;53349;53.538;8.584;2023-01-19T01:54:19;3.36;78.14
66522;SHT31;53349;53.538;8.584;2023-01-19T01:56:47;3.33;78.13
66522;SHT31;53349;53.538;8.584;2023-01-19T01:59:20;3.30;78.06
66522;SHT31;53349;53.538;8.584;2023-01-19T02:01:46;3.31;78.20
66522;SHT31;53349;53.538;8.584;2023-01-19T02:04:12;3.30;78.28
66522;SHT31;53349;53.538;8.584;2023-01-19T02:06:40;3.29;78.30
66522;SHT31;53349;53.538;8.584;2023-01-19T02:09:09;3.27;78.50
66522;SHT31;53349;53.538;8.584;2023-01-19T02:11:35;3.27;78.65
66522;SHT31;53349;53.538;8.584;2023-01-19T02:14:04;3.31;78.64
66522;SHT31;53349;53.538;8.584;2023-01-19T02:16:29;3.29;78.74
66522;SHT31;53349;53.538;8.584;2023-01-19T02:18:56;3.30;78.89
66522;SHT31;53349;53.538;8.584;2023-01-19T02:21:26;3.27;78.93
66522;SHT31;53349;53.538;8.584;2023-01-19T02:23:56;3.26;79.08
66522;SHT31;53349;53.538;8.584;2023-01-19T02:26:30;3.31;79.22
66522;SHT31;53349;53.538;8.584;2023-01-19T02:29:09;3.31;79.19
66522;SHT31;53349;53.538;8.584;2023-01-19T02:31:36;3.31;79.28
66522;SHT31;53349;53.538;8.584;2023-01-19T02:34:04;3.30;79.42
66522;SHT31;53349;53.538;8.584;2023-01-19T02:36:41;3.31;79.45
66522;SHT31;53349;53.538;8.584;2023-01-19T02:39:08;3.33;79.38
66522;SHT31;53349;53.538;8.584;2023-01-19T02:41:41;3.29;79.47
66522;SHT31;53349;53.538;8.584;2023-01-19T02:44:09;3.29;79.51
66522;SHT31;53349;53.538;8.584;2023-01-19T02:46:35;3.30;79.60
66522;SHT31;53349;53.538;8.584;2023-01-19T02:49:01;3.30;79.73
66522;SHT31;53349;53.538;8.584;2023-01-19T02:51:27;3.31;79.55
66522;SHT31;53349;53.538;8.584;2023-01-19T03:07:13;3.33;79.98
66522;SHT31;53349;53.538;8.584;2023-01-19T03:12:40;3.36;79.98
66522;SHT31;53349;53.538;8.584;2023-01-19T03:15:20;3.39;79.98
66522;SHT31;53349;53.538;8.584;2023-01-19T03:17:48;3.34;79.83
66522;SHT31;53349;53.538;8.584;2023-01-19T03:20:18;3.34;79.79
66522;SHT31;53349;53.538;8.584;2023-01-19T03:22:48;3.33;79.88
66522;SHT31;53349;53.538;8.584;2023-01-19T03:25:16;3.33;79.94
66522;SHT31;53349;53.538;8.584;2023-01-19T03:27:44;3.30;80.03
66522;SHT31;53349;53.538;8.584;2023-01-19T03:30:15;3.34;80.02
66522;SHT31;53349;53.538;8.584;2023-01-19T03:32:45;3.31;80.09
66522;SHT31;53349;53.538;8.584;2023-01-19T03:35:13;3.30;80.08
66522;SHT31;53349;53.538;8.584;2023-01-19T03:37:42;3.29;80.28
66522;SHT31;53349;53.538;8.584;2023-01-19T03:40:10;3.29;80.33
66522;SHT31;53349;53.538;8.584;2023-01-19T03:42:36;3.24;80.50
66522;SHT31;53349;53.538;8.584;2023-01-19T03:45:02;3.23;80.69
66522;SHT31;53349;53.538;8.584;2023-01-19T03:47:28;3.22;80.69
66522;SHT31;53349;53.538;8.584;2023-01-19T03:49:55;3.20;80.76
66522;SHT31;53349;53.538;8.584;2023-01-19T03:52:28;3.16;80.84
66522;SHT31;53349;53.538;8.584;2023-01-19T03:54:54;3.19;81.01
66522;SHT31;53349;53.538;8.584;2023-01-19T03:57:19;3.17;80.92
66522;SHT31;53349;53.538;8.584;2023-01-19T03:59:45;3.16;81.02
66522;SHT31;53349;53.538;8.584;2023-01-19T04:02:10;3.20;80.90
66522;SHT31;53349;53.538;8.584;2023-01-19T04:04:35;3.20;80.90
66522;SHT31;53349;53.538;8.584;2023-01-19T04:07:01;3.17;80.90
66522;SHT31;53349;53.538;8.584;2023-01-19T04:09:26;3.17;80.83
66522;SHT31;53349;53.538;8.584;2023-01-19T04:11:52;3.17;80.92
66522;SHT31;53349;53.538;8.584;2023-01-19T04:14:17;3.16;80.90
66522;SHT31;53349;53.538;8.584;2023-01-19T04:16:42;3.17;81.01
66522;SHT31;53349;53.538;8.584;2023-01-19T04:19:08;3.15;81.06
66522;SHT31;53349;53.538;8.584;2023-01-19T04:21:33;3.15;81.15
66522;SHT31;53349;53.538;8.584;2023-01-19T04:23:58;3.17;81.41
66522;SHT31;53349;53.538;8.584;2023-01-19T04:26:24;3.17;81.44
66522;SHT31;53349;53.538;8.584;2023-01-19T04:28:50;3.19;81.44
66522;SHT31;53349;53.538;8.584;2023-01-19T04:31:15;3.19;81.50
66522;SHT31;53349;53.538;8.584;2023-01-19T04:33:41;3.16;81.55
66522;SHT31;53349;53.538;8.584;2023-01-19T04:36:06;3.17;81.52
66522;SHT31;53349;53.538;8.584;2023-01-19T04:38:32;3.19;81.51
66522;SHT31;53349;53.538;8.584;2023-01-19T04:40:57;3.17;81.50
66522;SHT31;53349;53.538;8.584;2023-01-19T04:43:23;3.19;81.59
66522;SHT31;53349;53.538;8.584;2023-01-19T04:45:48;3.19;81.68
66522;SHT31;53349;53.538;8.584;2023-01-19T04:48:14;3.20;81.63
66522;SHT31;53349;53.538;8.584;2023-01-19T04:50:40;3.22;81.65
66522;SHT31;53349;53.538;8.584;2023-01-19T04:53:05;3.20;81.68
66522;SHT31;53349;53.538;8.584;2023-01-19T04:55:30;3.22;81.71
66522;SHT31;53349;53.538;8.584;2023-01-19T04:57:56;3.20;81.72
66522;SHT31;53349;53.538;8.584;2023-01-19T05:00:21;3.20;81.74
66522;SHT31;53349;53.538;8.584;2023-01-19T05:02:47;3.23;81.81
66522;SHT31;53349;53.538;8.584;2023-01-19T05:05:12;3.23;81.97
66522;SHT31;53349;53.538;8.584;2023-01-19T05:07:38;3.23;82.08
66522;SHT31;53349;53.538;8.584;2023-01-19T05:10:05;3.22;82.17
66522;SHT31;53349;53.538;8.584;2023-01-19T05:12:31;3.19;82.18
66522;SHT31;53349;53.538;8.584;2023-01-19T05:14:56;3.19;82.34
66522;SHT31;53349;53.538;8.584;2023-01-19T05:17:21;3.23;82.37
66522;SHT31;53349;53.538;8.584;2023-01-19T05:19:47;3.17;82.52
66522;SHT31;53349;53.538;8.584;2023-01-19T05:22:12;3.15;82.60
66522;SHT31;53349;53.538;8.584;2023-01-19T05:24:37;3.17;82.63
66522;SHT31;53349;53.538;8.584;2023-01-19T05:27:03;3.17;82.63
66522;SHT31;53349;53.538;8.584;2023-01-19T05:29:28;3.15;82.69
66522;SHT31;53349;53.538;8.584;2023-01-19T05:31:53;3.20;82.83
66522;SHT31;53349;53.538;8.584;2023-01-19T05:34:19;3.15;82.92
66522;SHT31;53349;53.538;8.584;2023-01-19T05:36:44;3.16;82.97
66522;SHT31;53349;53.538;8.584;2023-01-19T05:39:09;3.15;83.08
66522;SHT31;53349;53.538;8.584;2023-01-19T05:41:35;3.19;83.11
66522;SHT31;53349;53.538;8.584;2023-01-19T05:44:00;3.19;83.04
66522;SHT31;53349;53.538;8.584;2023-01-19T05:46:26;3.22;83.00
66522;SHT31;53349;53.538;8.584;2023-01-19T05:48:51;3.23;82.86
66522;SHT31;53349;53.538;8.584;2023-01-19T05:51:16;3.20;82.83
66522;SHT31;53349;53.538;8.584;2023-01-19T05:53:42;3.19;82.81
66522;SHT31;53349;53.538;8.584;2023-01-19T05:56:09;3.22;82.78
66522;SHT31;53349;53.538;8.584;2023-01-19T05:58:36;3.23;82.73
66522;SHT31;53349;53.538;8.584;2023-01-19T06:01:03;3.26;82.68
66522;SHT31;53349;53.538;8.584;2023-01-19T06:03:28;3.26;82.64
66522;SHT31;53349;53.538;8.584;2023-01-19T06:05:56;3.23;82.69
66522;SHT31;53349;53.538;8.584;2023-01-19T06:08:21;3.24;82.63
66522;SHT31;53349;53.538;8.584;2023-01-19T06:10:47;3.27;82.65
66522;SHT31;53349;53.538;8.584;2023-01-19T06:13:12;3.24;82.53
66522;SHT31;53349;53.538;8.584;2023-01-19T06:15:38;3.29;82.42
66522;SHT31;53349;53.538;8.584;2023-01-19T06:18:03;3.29;82.40
66522;SHT31;53349;53.538;8.584;2023-01-19T06:20:29;3.27;82.39
66522;SHT31;53349;53.538;8.584;2023-01-19T06:22:57;3.27;82.46
66522;SHT31;53349;53.538;8.584;2023-01-19T06:25:22;3.24;82.47
66522;SHT31;53349;53.538;8.584;2023-01-19T06:27:48;3.22;82.39
66522;SHT31;53349;53.538;8.584;2023-01-19T06:30:13;3.26;82.33
66522;SHT31;53349;53.538;8.584;2023-01-19T06:32:39;3.26;82.30
66522;SHT31;53349;53.538;8.584;2023-01-19T06:35:05;3.20;82.43
66522;SHT31;53349;53.538;8.584;2023-01-19T06:37:30;3.22;82.46
66522;SHT31;53349;53.538;8.584;2023-01-19T06:39:55;3.24;82.54
66522;SHT31;53349;53.538;8.584;2023-01-19T06:42:21;3.24;82.57
66522;SHT31;53349;53.538;8.584;2023-01-19T06:44:46;3.23;82.54
66522;SHT31;53349;53.538;8.584;2023-01-19T06:47:13;3.20;82.51
66522;SHT31;53349;53.538;8.584;2023-01-19T06:49:39;3.24;82.54
66522;SHT31;53349;53.538;8.584;2023-01-19T06:52:04;3.27;82.48
66522;SHT31;53349;53.538;8.584;2023-01-19T06:54:30;3.27;82.57
66522;SHT31;53349;53.538;8.584;2023-01-19T06:56:55;3.27;82.48
66522;SHT31;53349;53.538;8.584;2023-01-19T06:59:20;3.27;82.57
66522;SHT31;53349;53.538;8.584;2023-01-19T07:01:46;3.29;82.69
66522;SHT31;53349;53.538;8.584;2023-01-19T07:04:11;3.26;82.89
66522;SHT31;53349;53.538;8.584;2023-01-19T07:06:36;3.27;82.95
66522;SHT31;53349;53.538;8.584;2023-01-19T07:09:02;3.27;82.89
66522;SHT31;53349;53.538;8.584;2023-01-19T07:11:32;3.29;82.94
66522;SHT31;53349;53.538;8.584;2023-01-19T07:14:01;3.26;82.88
66522;SHT31;53349;53.538;8.584;2023-01-19T07:16:27;3.27;82.87
66522;SHT31;53349;53.538;8.584;2023-01-19T07:18:52;3.24;83.03
66522;SHT31;53349;53.538;8.584;2023-01-19T07:21:17;3.23;82.88
66522;SHT31;53349;53.538;8.584;2023-01-19T07:23:43;3.22;82.97
66522;SHT31;53349;53.538;8.584;2023-01-19T07:26:09;3.23;82.81
66522;SHT31;53349;53.538;8.584;2023-01-19T07:28:34;3.19;82.92
66522;SHT31;53349;53.538;8.584;2023-01-19T07:31:00;3.16;82.99
66522;SHT31;53349;53.538;8.584;2023-01-19T07:33:25;3.20;83.00
66522;SHT31;53349;53.538;8.584;2023-01-19T07:35:51;3.17;82.95
66522;SHT31;53349;53.538;8.584;2023-01-19T07:38:19;3.13;82.94
66522;SHT31;53349;53.538;8.584;2023-01-19T07:40:45;3.16;83.09
66522;SHT31;53349;53.538;8.584;2023-01-19T07:43:11;3.15;83.08
66522;SHT31;53349;53.538;8.584;2023-01-19T07:45:37;3.16;83.23
66522;SHT31;53349;53.538;8.584;2023-01-19T07:48:02;3.20;83.53
66522;SHT31;53349;53.538;8.584;2023-01-19T07:50:27;3.23;83.69
66522;SHT31;53349;53.538;8.584;2023-01-19T07:52:54;3.23;83.83
66522;SHT31;53349;53.538;8.584;2023-01-19T07:55:22;3.29;83.85
66522;SHT31;53349;53.538;8.584;2023-01-19T07:57:48;3.31;83.88
66522;SHT31;53349;53.538;8.584;2023-01-19T08:00:14;3.33;83.99
66522;SHT31;53349;53.538;8.584;2023-01-19T08:02:39;3.40;84.36
66522;SHT31;53349;53.538;8.584;2023-01-19T08:05:05;3.54;84.79
66522;SHT31;53349;53.538;8.584;2023-01-19T08:07:32;3.61;84.84
66522;SHT31;53349;53.538;8.584;2023-01-19T08:09:57;3.66;84.84
66522;SHT31;53349;53.538;8.584;2023-01-19T08:12:23;3.67;84.57
66522;SHT31;53349;53.538;8.584;2023-01-19T08:14:50;3.66;84.13
66522;SHT31;53349;53.538;8.584;2023-01-19T08:17:18;3.64;83.96
66522;SHT31;53349;53.538;8.584;2023-01-19T08:19:48;3.60;83.70
66522;SHT31;53349;53.538;8.584;2023-01-19T08:22:13;3.60;83.53
66522;SHT31;53349;53.538;8.584;2023-01-19T08:24:41;3.60;83.34
66522;SHT31;53349;53.538;8.584;2023-01-19T08:27:06;3.60;83.11
66522;SHT31;53349;53.538;8.584;2023-01-19T08:29:31;3.54;83.12
66522;SHT31;53349;53.538;8.584;2023-01-19T08:31:57;3.53;83.16
66522;SHT31;53349;53.538;8.584;2023-01-19T08:34:24;3.50;83.12
66522;SHT31;53349;53.538;8.584;2023-01-19T08:36:51;3.47;83.22
66522;SHT31;53349;53.538;8.584;2023-01-19T08:39:20;3.47;83.34
66522;SHT31;53349;53.538;8.584;2023-01-19T08:41:46;3.50;83.36
66522;SHT31;53349;53.538;8.584;2023-01-19T08:44:11;3.51;83.26
66522;SHT31;53349;53.538;8.584;2023-01-19T08:46:36;3.51;83.30
66522;SHT31;53349;53.538;8.584;2023-01-19T08:49:02;3.54;83.36
66522;SHT31;53349;53.538;8.584;2023-01-19T08:51:27;3.53;83.32
66522;SHT31;53349;53.538;8.584;2023-01-19T08:53:52;3.56;83.06
66522;SHT31;53349;53.538;8.584;2023-01-19T08:56:17;3.58;82.95
66522;SHT31;53349;53.538;8.584;2023-01-19T08:58:44;3.58;82.92
66522;SHT31;53349;53.538;8.584;2023-01-19T09:01:11;3.60;82.95
66522;SHT31;53349;53.538;8.584;2023-01-19T09:03:36;3.63;82.87
66522;SHT31;53349;53.538;8.584;2023-01-19T09:06:06;3.61;82.81
66522;SHT31;53349;53.538;8.584;2023-01-19T09:08:32;3.61;82.79
66522;SHT31;53349;53.538;8.584;2023-01-19T09:10:57;3.64;82.77
66522;SHT31;53349;53.538;8.584;2023-01-19T09:13:25;3.61;82.72
66522;SHT31;53349;53.538;8.584;2023-01-19T09:15:50;3.64;82.77
66522;SHT31;53349;53.538;8.584;2023-01-19T09:18:19;3.66;82.73
66522;SHT31;53349;53.538;8.584;2023-01-19T09:20:46;3.66;82.71
66522;SHT31;53349;53.538;8.584;2023-01-19T09:23:14;3.66;82.59
66522;SHT31;53349;53.538;8.584;2023-01-19T09:25:42;3.68;82.62
66522;SHT31;53349;53.538;8.584;2023-01-19T09:28:10;3.70;82.67
66522;SHT31;53349;53.538;8.584;2023-01-19T09:30:37;3.71;82.63
66522;SHT31;53349;53.538;8.584;2023-01-19T09:33:07;3.68;82.68
66522;SHT31;53349;53.538;8.584;2023-01-19T09:35:33;3.74;82.73
66522;SHT31;53349;53.538;8.584;2023-01-19T09:37:59;3.81;82.51
66522;SHT31;53349;53.538;8.584;2023-01-19T09:40:25;3.81;82.29
66522;SHT31;53349;53.538;8.584;2023-01-19T09:42:54;3.80;82.29
66522;SHT31;53349;53.538;8.584;2023-01-19T09:45:51;3.78;82.33
66522;SHT31;53349;53.538;8.584;2023-01-19T09:51:05;3.80;82.36
66522;SHT31;53349;53.538;8.584;2023-01-19T09:56:03;3.74;82.49
66522;SHT31;53349;53.538;8.584;2023-01-19T09:58:29;3.77;82.53
66522;SHT31;53349;53.538;8.584;2023-01-19T10:03:45;3.84;82.67
66522;SHT31;53349;53.538;8.584;2023-01-19T10:06:13;3.88;82.69
66522;SHT31;53349;53.538;8.584;2023-01-19T10:08:54;3.91;82.65
66522;SHT31;53349;53.538;8.584;2023-01-19T10:11:29;3.95;82.67
66522;SHT31;53349;53.538;8.584;2023-01-19T10:13:56;3.97;82.70
66522;SHT31;53349;53.538;8.584;2023-01-19T10:16:46;4.01;82.69
66522;SHT31;53349;53.538;8.584;2023-01-19T10:19:36;4.11;82.62
66522;SHT31;53349;53.538;8.584;2023-01-19T10:22:28;4.15;82.55
66522;SHT31;53349;53.538;8.584;2023-01-19T10:25:00;4.22;82.31
66522;SHT31;53349;53.538;8.584;2023-01-19T10:27:33;4.30;82.10
66522;SHT31;53349;53.538;8.584;2023-01-19T10:30:00;4.40;82.01
66522;SHT31;53349;53.538;8.584;2023-01-19T10:32:31;4.46;81.93
66522;SHT31;53349;53.538;8.584;2023-01-19T10:34:59;4.53;81.75
66522;SHT31;53349;53.538;8.584;2023-01-19T10:37:39;4.61;81.70
66522;SHT31;53349;53.538;8.584;2023-01-19T10:42:39;4.73;81.33
66522;SHT31;53349;53.538;8.584;2023-01-19T10:45:20;4.77;80.48
66522;SHT31;53349;53.538;8.584;2023-01-19T10:47:47;4.84;80.58
66522;SHT31;53349;53.538;8.584;2023-01-19T10:50:30;5.12;81.69
66522;SHT31;53349;53.538;8.584;2023-01-19T10:53:01;5.25;80.82
66522;SHT31;53349;53.538;8.584;2023-01-19T10:57:57;5.35;79.75
66522;SHT31;53349;53.538;8.584;2023-01-19T11:00:40;5.28;79.15
66522;SHT31;53349;53.538;8.584;2023-01-19T11:03:28;5.25;78.91
66522;SHT31;53349;53.538;8.584;2023-01-19T11:06:24;5.24;79.43
66522;SHT31;53349;53.538;8.584;2023-01-19T11:08:52;5.27;79.67
66522;SHT31;53349;53.538;8.584;2023-01-19T11:11:20;5.27;79.69
66522;SHT31;53349;53.538;8.584;2023-01-19T11:14:03;5.20;79.57
66522;SHT31;53349;53.538;8.584;2023-01-19T11:16:32;5.12;79.52
66522;SHT31;53349;53.538;8.584;2023-01-19T11:18:59;5.02;79.41
66522;SHT31;53349;53.538;8.584;2023-01-19T11:21:26;4.92;79.83
66522;SHT31;53349;53.538;8.584;2023-01-19T11:23:55;4.91;80.01
66522;SHT31;53349;53.538;8.584;2023-01-19T11:26:40;4.88;79.95
66522;SHT31;53349;53.538;8.584;2023-01-19T11:29:19;4.88;80.10
66522;SHT31;53349;53.538;8.584;2023-01-19T11:31:47;4.88;80.00
66522;SHT31;53349;53.538;8.584;2023-01-19T11:34:29;4.90;79.58
66522;SHT31;53349;53.538;8.584;2023-01-19T11:36:59;4.90;79.17
66522;SHT31;53349;53.538;8.584;2023-01-19T11:39:28;4.91;79.04
66522;SHT31;53349;53.538;8.584;2023-01-19T11:41:58;4.98;78.82
66522;SHT31;53349;53.538;8.584;2023-01-19T11:46:59;5.10;78.82
66522;SHT31;53349;53.538;8.584;2023-01-19T11:49:46;5.15;78.94
66522;SHT31;53349;53.538;8.584;2023-01-19T11:52:36;5.27;78.77
66522;SHT31;53349;53.538;8.584;2023-01-19T11:55:17;5.32;78.73
66522;SHT31;53349;53.538;8.584;2023-01-19T11:57:47;5.39;78.49
66522;SHT31;53349;53.538;8.584;2023-01-19T12:00:32;5.43;78.54
66522;SHT31;53349;53.538;8.584;2023-01-19T12:03:07;5.46;78.26
66522;SHT31;53349;53.538;8.584;2023-01-19T12:05:40;5.49;78.37
66522;SHT31;53349;53.538;8.584;2023-01-19T12:08:13;5.52;78.11
66522;SHT31;53349;53.538;8.584;2023-01-19T12:10:40;5.51;78.10
66522;SHT31;53349;53.538;8.584;2023-01-19T12:13:22;5.51;77.97
66522;SHT31;53349;53.538;8.584;2023-01-19T12:15:57;5.53;78.08
66522;SHT31;53349;53.538;8.584;2023-01-19T12:18:28;5.53;77.72
66522;SHT31;53349;53.538;8.584;2023-01-19T12:20:55;5.56;77.42
66522;SHT31;53349;53.538;8.584;2023-01-19T12:23:42;5.53;77.24
66522;SHT31;53349;53.538;8.584;2023-01-19T12:28:39;5.65;77.36
66522;SHT31;53349;53.538;8.584;2023-01-19T12:31:07;5.70;77.27
66522;SHT31;53349;53.538;8.584;2023-01-19T12:33:37;5.76;77.09
66522;SHT31;53349;53.538;8.584;2023-01-19T12:36:36;5.80;76.85
66522;SHT31;53349;53.538;8.584;2023-01-19T12:39:19;5.83;76.75
66522;SHT31;53349;53.538;8.584;2023-01-19T12:41:46;5.87;76.34
66522;SHT31;53349;53.538;8.584;2023-01-19T12:46:40;5.90;76.09
66522;SHT31;53349;53.538;8.584;2023-01-19T12:51:42;5.80;75.77
66522;SHT31;53349;53.538;8.584;2023-01-19T12:54:18;5.80;75.54
66522;SHT31;53349;53.538;8.584;2023-01-19T12:56:44;5.76;74.73
66522;SHT31;53349;53.538;8.584;2023-01-19T12:59:23;5.69;74.22
66522;SHT31;53349;53.538;8.584;2023-01-19T13:18:43;5.48;72.41
66522;SHT31;53349;53.538;8.584;2023-01-19T13:21:10;5.43;71.95
66522;SHT31;53349;53.538;8.584;2023-01-19T13:24:02;5.42;71.54
66522;SHT31;53349;53.538;8.584;2023-01-19T13:26:31;5.43;70.72
66522;SHT31;53349;53.538;8.584;2023-01-19T13:29:05;5.52;70.14
66522;SHT31;53349;53.538;8.584;2023-01-19T13:31:36;5.49;70.14
66522;SHT31;53349;53.538;8.584;2023-01-19T13:34:08;5.53;70.24
66522;SHT31;53349;53.538;8.584;2023-01-19T13:36:36;5.53;69.91
66522;SHT31;53349;53.538;8.584;2023-01-19T13:39:06;5.52;70.17
66522;SHT31;53349;53.538;8.584;2023-01-19T13:41:38;5.52;69.82
66522;SHT31;53349;53.538;8.584;2023-01-19T13:44:06;5.51;69.08
66522;SHT31;53349;53.538;8.584;2023-01-19T13:46:35;5.52;69.14
66522;SHT31;53349;53.538;8.584;2023-01-19T13:49:15;5.53;68.32
66522;SHT31;53349;53.538;8.584;2023-01-19T13:51:44;5.51;67.67
66522;SHT31;53349;53.538;8.584;2023-01-19T13:54:15;5.41;67.85
66522;SHT31;53349;53.538;8.584;2023-01-19T13:56:46;5.43;67.21
66522;SHT31;53349;53.538;8.584;2023-01-19T13:59:12;5.41;67.43
66522;SHT31;53349;53.538;8.584;2023-01-19T14:01:42;5.39;68.15
66522;SHT31;53349;53.538;8.584;2023-01-19T14:04:31;5.42;67.76
66522;SHT31;53349;53.538;8.584;2023-01-19T14:07:04;5.42;67.62
66522;SHT31;53349;53.538;8.584;2023-01-19T14:09:31;5.46;67.77
66522;SHT31;53349;53.538;8.584;2023-01-19T14:12:14;5.51;67.82
66522;SHT31;53349;53.538;8.584;2023-01-19T14:14:44;5.52;68.30
66522;SHT31;53349;53.538;8.584;2023-01-19T14:17:20;5.56;68.73
66522;SHT31;53349;53.538;8.584;2023-01-19T14:19:47;5.52;68.53
66522;SHT31;53349;53.538;8.584;2023-01-19T14:22:14;5.53;68.50
66522;SHT31;53349;53.538;8.584;2023-01-19T14:24:39;5.53;68.45
66522;SHT31;53349;53.538;8.584;2023-01-19T14:27:22;5.51;68.22
66522;SHT31;53349;53.538;8.584;2023-01-19T14:29:49;5.51;68.37
66522;SHT31;53349;53.538;8.584;2023-01-19T14:32:23;5.42;68.05
66522;SHT31;53349;53.538;8.584;2023-01-19T14:35:12;5.42;67.34
66522;SHT31;53349;53.538;8.584;2023-01-19T14:37:45;5.34;66.44
66522;SHT31;53349;53.538;8.584;2023-01-19T14:42:48;5.25;67.34
66522;SHT31;53349;53.538;8.584;2023-01-19T14:45:21;5.22;67.86
66522;SHT31;53349;53.538;8.584;2023-01-19T14:47:58;5.24;68.64
66522;SHT31;53349;53.538;8.584;2023-01-19T14:50:30;5.21;68.10
66522;SHT31;53349;53.538;8.584;2023-01-19T14:53:04;5.20;68.10
66522;SHT31;53349;53.538;8.584;2023-01-19T14:55:44;5.17;68.00
66522;SHT31;53349;53.538;8.584;2023-01-19T14:58:16;5.14;67.43
66522;SHT31;53349;53.538;8.584;2023-01-19T15:00:43;5.15;67.39
66522;SHT31;53349;53.538;8.584;2023-01-19T15:03:09;5.12;66.77
66522;SHT31;53349;53.538;8.584;2023-01-19T15:05:43;5.08;66.60
66522;SHT31;53349;53.538;8.584;2023-01-19T15:08:18;5.04;66.90
66522;SHT31;53349;53.538;8.584;2023-01-19T15:10:44;4.95;67.83
66522;SHT31;53349;53.538;8.584;2023-01-19T15:13:16;4.91;68.64
66522;SHT31;53349;53.538;8.584;2023-01-19T15:15:45;4.85;69.28
66522;SHT31;53349;53.538;8.584;2023-01-19T15:18:16;4.80;69.83
66522;SHT31;53349;53.538;8.584;2023-01-19T15:20:42;4.79;70.31
66522;SHT31;53349;53.538;8.584;2023-01-19T15:23:10;4.73;70.37
66522;SHT31;53349;53.538;8.584;2023-01-19T15:25:36;4.73;70.65
66522;SHT31;53349;53.538;8.584;2023-01-19T15:28:18;4.69;70.89
66522;SHT31;53349;53.538;8.584;2023-01-19T15:30:50;4.67;71.26
66522;SHT31;53349;53.538;8.584;2023-01-19T15:33:18;4.66;71.29
66522;SHT31;53349;53.538;8.584;2023-01-19T15:35:44;4.66;71.33
66522;SHT31;53349;53.538;8.584;2023-01-19T15:38:16;4.64;71.46
66522;SHT31;53349;53.538;8.584;2023-01-19T15:40:41;4.63;71.77
66522;SHT31;53349;53.538;8.584;2023-01-19T15:43:09;4.59;71.86
66522;SHT31;53349;53.538;8.584;2023-01-19T15:45:36;4.56;71.94
66522;SHT31;53349;53.538;8.584;2023-01-19T15:48:07;4.53;72.10
66522;SHT31;53349;53.538;8.584;2023-01-19T15:50:43;4.54;72.27
66522;SHT31;53349;53.538;8.584;2023-01-19T15:53:14;4.48;71.97
66522;SHT31;53349;53.538;8.584;2023-01-19T15:55:40;4.42;71.44
66522;SHT31;53349;53.538;8.584;2023-01-19T15:58:06;4.40;71.47
66522;SHT31;53349;53.538;8.584;2023-01-19T16:00:32;4.38;71.41
66522;SHT31;53349;53.538;8.584;2023-01-19T16:03:00;4.35;71.34
66522;SHT31;53349;53.538;8.584;2023-01-19T16:05:26;4.30;71.35
66522;SHT31;53349;53.538;8.584;2023-01-19T16:07:52;4.32;71.41
66522;SHT31;53349;53.538;8.584;2023-01-19T16:10:18;4.28;71.20
66522;SHT31;53349;53.538;8.584;2023-01-19T16:12:45;4.28;70.63
66522;SHT31;53349;53.538;8.584;2023-01-19T16:15:11;4.22;70.05
66522;SHT31;53349;53.538;8.584;2023-01-19T16:17:39;4.23;70.02
66522;SHT31;53349;53.538;8.584;2023-01-19T16:20:06;4.20;69.32
66522;SHT31;53349;53.538;8.584;2023-01-19T16:22:34;4.19;68.80
66522;SHT31;53349;53.538;8.584;2023-01-19T16:25:02;4.22;68.46
66522;SHT31;53349;53.538;8.584;2023-01-19T16:27:28;4.23;68.48
66522;SHT31;53349;53.538;8.584;2023-01-19T16:29:54;4.19;68.49
66522;SHT31;53349;53.538;8.584;2023-01-19T16:32:19;4.22;68.54
66522;SHT31;53349;53.538;8.584;2023-01-19T16:34:45;4.20;68.63
66522;SHT31;53349;53.538;8.584;2023-01-19T16:37:10;4.22;69.02
66522;SHT31;53349;53.538;8.584;2023-01-19T16:39:36;4.20;70.13
66522;SHT31;53349;53.538;8.584;2023-01-19T16:42:01;4.15;70.32
66522;SHT31;53349;53.538;8.584;2023-01-19T16:44:27;4.09;70.51
66522;SHT31;53349;53.538;8.584;2023-01-19T16:46:53;4.11;70.70
66522;SHT31;53349;53.538;8.584;2023-01-19T16:49:23;4.05;70.98
66522;SHT31;53349;53.538;8.584;2023-01-19T16:51:49;4.01;71.45
66522;SHT31;53349;53.538;8.584;2023-01-19T16:54:22;3.99;71.48